sensor_id;sensor_type;location;lat;lon;timestamp;temperature;humidity
26107;DHT22;13866;50.748;12.630;2023-08-06T00:01:49;14.50;99.90
26107;DHT22;13866;50.748;12.630;2023-08-06T00:04:15;14.60;99.90
26107;DHT22;13866;50.748;12.630;2023-08-06T00:06:40;14.50;99.90
26107;DHT22;13866;50.748;12.630;2023-08-06T00:09:06;14.50;99.90
26107;DHT22;13866;50.748;12.630;2023-08-06T00:11:31;14.50;99.90
26107;DHT22;13866;50.748;12.630;2023-08-06T00:13:57;14.40;99.90
26107;DHT22;13866;50.748;12.630;2023-08-06T00:16:22;14.40;99.90
26107;DHT22;13866;50.748;12.630;2023-08-06T00:18:48;14.50;99.90
26107;DHT22;13866;50.748;12.630;2023-08-06T00:21:13;14.50;99.90
26107;DHT22;13866;50.748;12.630;2023-08-06T00:23:40;14.40;99.90
26107;DHT22;13866;50.748;12.630;2023-08-06T00:26:06;14.40;99.90
26107;DHT22;13866;50.748;12.630;2023-08-06T00:28:31;14.40;99.90
26107;DHT22;13866;50.748;12.630;2023-08-06T00:30:57;14.30;99.90
26107;DHT22;13866;50.748;12.630;2023-08-06T00:33:23;14.30;99.90
26107;DHT22;13866;50.748;12.630;2023-08-06T00:35:48;14.30;99.90
26107;DHT22;13866;50.748;12.630;2023-08-06T00:38:14;14.30;99.90
26107;DHT22;13866;50.748;12.630;2023-08-06T00:40:40;14.20;99.90
26107;DHT22;13866;50.748;12.630;2023-08-06T00:43:05;14.20;99.90
26107;DHT22;13866;50.748;12.630;2023-08-06T00:45:34;14.20;99.90
26107;DHT22;13866;50.748;12.630;2023-08-06T00:48:01;14.20;99.90
26107;DHT22;13866;50.748;12.630;2023-08-06T00:50:27;14.20;99.90
26107;DHT22;13866;50.748;12.630;2023-08-06T00:52:53;14.10;99.90
26107;DHT22;13866;50.748;12.630;2023-08-06T00:55:18;14.20;99.90
26107;DHT22;13866;50.748;12.630;2023-08-06T00:57:44;14.20;99.90
26107;DHT22;13866;50.748;12.630;2023-08-06T01:00:10;14.10;99.90
26107;DHT22;13866;50.748;12.630;2023-08-06T01:02:36;14.20;99.90
26107;DHT22;13866;50.748;12.630;2023-08-06T01:05:02;14.20;99.90
26107;DHT22;13866;50.748;12.630;2023-08-06T01:15:21;14.40;99.90
26107;DHT22;13866;50.748;12.630;2023-08-06T01:17:48;14.30;99.90
26107;DHT22;13866;50.748;12.630;2023-08-06T01:20:13;14.30;99.90
26107;DHT22;13866;50.748;12.630;2023-08-06T01:22:39;14.30;99.90
26107;DHT22;13866;50.748;12.630;2023-08-06T01:25:05;14.30;99.90
26107;DHT22;13866;50.748;12.630;2023-08-06T01:27:43;14.30;99.90
26107;DHT22;13866;50.748;12.630;2023-08-06T01:32:54;14.30;99.90
26107;DHT22;13866;50.748;12.630;2023-08-06T01:35:21;14.30;99.90
26107;DHT22;13866;50.748;12.630;2023-08-06T01:37:48;14.30;99.90
26107;DHT22;13866;50.748;12.630;2023-08-06T01:40:14;14.30;99.90
26107;DHT22;13866;50.748;12.630;2023-08-06T01:42:40;14.40;99.90
26107;DHT22;13866;50.748;12.630;2023-08-06T01:45:09;14.30;99.90
26107;DHT22;13866;50.748;12.630;2023-08-06T01:47:35;14.30;99.90
26107;DHT22;13866;50.748;12.630;2023-08-06T01:50:01;14.30;99.90
26107;DHT22;13866;50.748;12.630;2023-08-06T01:52:27;14.30;99.90
26107;DHT22;13866;50.748;12.630;2023-08-06T01:54:52;14.30;99.90
26107;DHT22;13866;50.748;12.630;2023-08-06T01:57:18;14.30;99.90
26107;DHT22;13866;50.748;12.630;2023-08-06T01:59:43;14.30;99.90
26107;DHT22;13866;50.748;12.630;2023-08-06T02:02:09;14.30;99.90
26107;DHT22;13866;50.748;12.630;2023-08-06T02:04:34;14.30;99.90
26107;DHT22;13866;50.748;12.630;2023-08-06T02:07:00;14.50;99.90
26107;DHT22;13866;50.748;12.630;2023-08-06T02:09:25;14.40;99.90
26107;DHT22;13866;50.748;12.630;2023-08-06T02:11:51;14.40;99.90
26107;DHT22;13866;50.748;12.630;2023-08-06T02:14:17;14.50;99.90
26107;DHT22;13866;50.748;12.630;2023-08-06T02:16:42;14.50;99.90
26107;DHT22;13866;50.748;12.630;2023-08-06T02:19:08;14.50;99.90
26107;DHT22;13866;50.748;12.630;2023-08-06T02:21:33;14.60;99.90
26107;DHT22;13866;50.748;12.630;2023-08-06T02:23:59;14.50;99.90
26107;DHT22;13866;50.748;12.630;2023-08-06T02:26:24;14.50;99.90
26107;DHT22;13866;50.748;12.630;2023-08-06T02:28:50;14.50;99.90
26107;DHT22;13866;50.748;12.630;2023-08-06T02:31:15;14.50;99.90
26107;DHT22;13866;50.748;12.630;2023-08-06T02:33:41;14.60;99.90
26107;DHT22;13866;50.748;12.630;2023-08-06T02:36:06;14.50;99.90
26107;DHT22;13866;50.748;12.630;2023-08-06T02:38:32;14.50;99.90
26107;DHT22;13866;50.748;12.630;2023-08-06T02:40:58;14.50;99.90
26107;DHT22;13866;50.748;12.630;2023-08-06T02:43:23;14.50;99.90
26107;DHT22;13866;50.748;12.630;2023-08-06T02:45:49;14.50;99.90
26107;DHT22;13866;50.748;12.630;2023-08-06T02:48:14;14.50;99.90
26107;DHT22;13866;50.748;12.630;2023-08-06T02:50:41;14.50;99.90
26107;DHT22;13866;50.748;12.630;2023-08-06T02:53:07;14.50;99.90
26107;DHT22;13866;50.748;12.630;2023-08-06T02:55:33;14.60;99.90
26107;DHT22;13866;50.748;12.630;2023-08-06T02:58:00;14.50;99.90
26107;DHT22;13866;50.748;12.630;2023-08-06T03:00:26;14.50;99.90
26107;DHT22;13866;50.748;12.630;2023-08-06T03:02:51;14.50;99.90
26107;DHT22;13866;50.748;12.630;2023-08-06T03:05:17;14.50;99.90
26107;DHT22;13866;50.748;12.630;2023-08-06T03:07:43;14.40;99.90
26107;DHT22;13866;50.748;12.630;2023-08-06T03:10:09;14.40;99.90
26107;DHT22;13866;50.748;12.630;2023-08-06T03:12:34;14.40;99.90
26107;DHT22;13866;50.748;12.630;2023-08-06T03:15:00;14.40;99.90
26107;DHT22;13866;50.748;12.630;2023-08-06T03:17:25;14.40;99.90
26107;DHT22;13866;50.748;12.630;2023-08-06T03:19:51;14.40;99.90
26107;DHT22;13866;50.748;12.630;2023-08-06T03:22:17;14.30;99.90
26107;DHT22;13866;50.748;12.630;2023-08-06T03:24:42;14.30;99.90
26107;DHT22;13866;50.748;12.630;2023-08-06T03:27:08;14.30;99.90
26107;DHT22;13866;50.748;12.630;2023-08-06T03:29:33;14.20;99.90
26107;DHT22;13866;50.748;12.630;2023-08-06T03:31:58;14.20;99.90
26107;DHT22;13866;50.748;12.630;2023-08-06T03:34:24;14.20;99.90
26107;DHT22;13866;50.748;12.630;2023-08-06T03:36:49;14.10;99.90
26107;DHT22;13866;50.748;12.630;2023-08-06T03:39:15;14.10;99.90
26107;DHT22;13866;50.748;12.630;2023-08-06T03:41:40;14.10;99.90
26107;DHT22;13866;50.748;12.630;2023-08-06T03:44:06;14.10;99.90
26107;DHT22;13866;50.748;12.630;2023-08-06T03:46:32;14.10;99.90
26107;DHT22;13866;50.748;12.630;2023-08-06T03:49:01;14.10;99.90
26107;DHT22;13866;50.748;12.630;2023-08-06T03:51:26;14.10;99.90
26107;DHT22;13866;50.748;12.630;2023-08-06T03:53:52;14.00;99.90
26107;DHT22;13866;50.748;12.630;2023-08-06T03:56:17;14.00;99.90
26107;DHT22;13866;50.748;12.630;2023-08-06T03:58:43;13.90;99.90
26107;DHT22;13866;50.748;12.630;2023-08-06T04:01:08;13.90;99.90
26107;DHT22;13866;50.748;12.630;2023-08-06T04:03:34;13.90;99.90
26107;DHT22;13866;50.748;12.630;2023-08-06T04:05:59;13.90;99.90
26107;DHT22;13866;50.748;12.630;2023-08-06T04:08:26;13.90;99.90
26107;DHT22;13866;50.748;12.630;2023-08-06T04:10:52;13.90;99.90
26107;DHT22;13866;50.748;12.630;2023-08-06T04:13:18;13.90;99.90
26107;DHT22;13866;50.748;12.630;2023-08-06T04:15:44;13.90;99.90
26107;DHT22;13866;50.748;12.630;2023-08-06T04:18:09;13.90;99.90
26107;DHT22;13866;50.748;12.630;2023-08-06T04:20:41;13.90;99.90
26107;DHT22;13866;50.748;12.630;2023-08-06T04:23:07;14.00;99.90
26107;DHT22;13866;50.748;12.630;2023-08-06T04:25:33;13.90;99.90
26107;DHT22;13866;50.748;12.630;2023-08-06T04:27:58;13.90;99.90
26107;DHT22;13866;50.748;12.630;2023-08-06T04:30:24;13.90;99.90
26107;DHT22;13866;50.748;12.630;2023-08-06T04:32:50;13.90;99.90
26107;DHT22;13866;50.748;12.630;2023-08-06T04:35:15;13.90;99.90
26107;DHT22;13866;50.748;12.630;2023-08-06T04:37:41;13.90;99.90
26107;DHT22;13866;50.748;12.630;2023-08-06T04:40:07;14.00;99.90
26107;DHT22;13866;50.748;12.630;2023-08-06T04:42:32;14.00;99.90
26107;DHT22;13866;50.748;12.630;2023-08-06T04:44:58;14.00;99.90
26107;DHT22;13866;50.748;12.630;2023-08-06T04:47:24;14.00;99.90
26107;DHT22;13866;50.748;12.630;2023-08-06T04:49:51;14.00;99.90
26107;DHT22;13866;50.748;12.630;2023-08-06T04:52:16;14.00;99.90
26107;DHT22;13866;50.748;12.630;2023-08-06T04:54:43;14.00;99.90
26107;DHT22;13866;50.748;12.630;2023-08-06T04:57:09;14.00;99.90
26107;DHT22;13866;50.748;12.630;2023-08-06T04:59:35;14.00;99.90
26107;DHT22;13866;50.748;12.630;2023-08-06T05:02:00;14.00;99.90
26107;DHT22;13866;50.748;12.630;2023-08-06T05:04:26;14.00;99.90
26107;DHT22;13866;50.748;12.630;2023-08-06T05:06:52;14.10;99.90
26107;DHT22;13866;50.748;12.630;2023-08-06T05:09:17;14.10;99.90
26107;DHT22;13866;50.748;12.630;2023-08-06T05:11:43;14.00;99.90
26107;DHT22;13866;50.748;12.630;2023-08-06T05:14:08;14.00;99.90
26107;DHT22;13866;50.748;12.630;2023-08-06T05:16:34;14.10;99.90
26107;DHT22;13866;50.748;12.630;2023-08-06T05:18:59;14.10;99.90
26107;DHT22;13866;50.748;12.630;2023-08-06T05:21:25;14.10;99.90
26107;DHT22;13866;50.748;12.630;2023-08-06T05:23:50;14.10;99.90
26107;DHT22;13866;50.748;12.630;2023-08-06T05:26:16;14.10;99.90
26107;DHT22;13866;50.748;12.630;2023-08-06T05:28:44;14.10;99.90
26107;DHT22;13866;50.748;12.630;2023-08-06T05:31:10;14.10;99.90
26107;DHT22;13866;50.748;12.630;2023-08-06T05:33:35;14.10;99.90
26107;DHT22;13866;50.748;12.630;2023-08-06T05:36:01;14.10;99.90
26107;DHT22;13866;50.748;12.630;2023-08-06T05:38:26;14.10;99.90
26107;DHT22;13866;50.748;12.630;2023-08-06T05:40:52;14.10;99.90
26107;DHT22;13866;50.748;12.630;2023-08-06T05:43:17;14.20;99.90
26107;DHT22;13866;50.748;12.630;2023-08-06T05:45:46;14.20;99.90
26107;DHT22;13866;50.748;12.630;2023-08-06T05:48:14;14.30;99.90
26107;DHT22;13866;50.748;12.630;2023-08-06T05:50:39;14.30;99.90
26107;DHT22;13866;50.748;12.630;2023-08-06T05:53:05;14.30;99.90
26107;DHT22;13866;50.748;12.630;2023-08-06T05:55:30;14.30;99.90
26107;DHT22;13866;50.748;12.630;2023-08-06T05:57:57;14.30;99.90
26107;DHT22;13866;50.748;12.630;2023-08-06T06:00:23;14.30;99.90
26107;DHT22;13866;50.748;12.630;2023-08-06T06:02:48;14.30;99.90
26107;DHT22;13866;50.748;12.630;2023-08-06T06:05:14;14.40;99.90
26107;DHT22;13866;50.748;12.630;2023-08-06T06:07:39;14.40;99.90
26107;DHT22;13866;50.748;12.630;2023-08-06T06:10:05;14.40;99.90
26107;DHT22;13866;50.748;12.630;2023-08-06T06:12:31;14.50;99.90
26107;DHT22;13866;50.748;12.630;2023-08-06T06:14:57;14.50;99.90
26107;DHT22;13866;50.748;12.630;2023-08-06T06:17:22;14.50;99.90
26107;DHT22;13866;50.748;12.630;2023-08-06T06:19:47;14.60;99.90
26107;DHT22;13866;50.748;12.630;2023-08-06T06:22:14;14.60;99.90
26107;DHT22;13866;50.748;12.630;2023-08-06T06:24:39;14.70;99.90
26107;DHT22;13866;50.748;12.630;2023-08-06T06:27:05;14.70;99.90
26107;DHT22;13866;50.748;12.630;2023-08-06T06:29:30;14.80;99.90
26107;DHT22;13866;50.748;12.630;2023-08-06T06:31:56;14.80;99.90
26107;DHT22;13866;50.748;12.630;2023-08-06T06:34:21;14.80;99.90
26107;DHT22;13866;50.748;12.630;2023-08-06T06:36:47;14.80;99.90
26107;DHT22;13866;50.748;12.630;2023-08-06T06:39:13;14.90;99.90
26107;DHT22;13866;50.748;12.630;2023-08-06T06:41:38;14.90;99.90
26107;DHT22;13866;50.748;12.630;2023-08-06T06:44:05;14.80;99.90
26107;DHT22;13866;50.748;12.630;2023-08-06T06:46:31;14.80;99.90
26107;DHT22;13866;50.748;12.630;2023-08-06T06:48:56;14.80;99.90
26107;DHT22;13866;50.748;12.630;2023-08-06T06:51:22;14.80;99.90
26107;DHT22;13866;50.748;12.630;2023-08-06T06:53:47;14.90;99.90
26107;DHT22;13866;50.748;12.630;2023-08-06T06:56:13;14.90;99.90
26107;DHT22;13866;50.748;12.630;2023-08-06T06:58:38;14.90;99.90
26107;DHT22;13866;50.748;12.630;2023-08-06T07:01:06;15.00;99.90
26107;DHT22;13866;50.748;12.630;2023-08-06T07:03:32;14.90;99.90
26107;DHT22;13866;50.748;12.630;2023-08-06T07:05:58;14.90;99.90
26107;DHT22;13866;50.748;12.630;2023-08-06T07:08:24;15.00;99.90
26107;DHT22;13866;50.748;12.630;2023-08-06T07:10:49;14.90;99.90
26107;DHT22;13866;50.748;12.630;2023-08-06T07:13:15;15.00;99.90
26107;DHT22;13866;50.748;12.630;2023-08-06T07:15:42;14.90;99.90
26107;DHT22;13866;50.748;12.630;2023-08-06T07:18:07;15.00;99.90
26107;DHT22;13866;50.748;12.630;2023-08-06T07:20:33;15.00;99.90
26107;DHT22;13866;50.748;12.630;2023-08-06T07:23:00;15.10;99.90
26107;DHT22;13866;50.748;12.630;2023-08-06T07:25:26;15.10;99.90
26107;DHT22;13866;50.748;12.630;2023-08-06T07:27:51;15.20;99.90
26107;DHT22;13866;50.748;12.630;2023-08-06T07:30:17;15.20;99.90
26107;DHT22;13866;50.748;12.630;2023-08-06T07:32:42;15.20;99.90
26107;DHT22;13866;50.748;12.630;2023-08-06T07:35:11;15.20;99.90
26107;DHT22;13866;50.748;12.630;2023-08-06T07:37:38;15.30;99.90
26107;DHT22;13866;50.748;12.630;2023-08-06T07:40:04;15.40;99.90
26107;DHT22;13866;50.748;12.630;2023-08-06T07:42:30;15.40;99.90
26107;DHT22;13866;50.748;12.630;2023-08-06T07:44:57;15.40;99.90
26107;DHT22;13866;50.748;12.630;2023-08-06T07:47:23;15.40;99.90
26107;DHT22;13866;50.748;12.630;2023-08-06T07:49:49;15.50;99.90
26107;DHT22;13866;50.748;12.630;2023-08-06T07:52:14;15.60;99.90
26107;DHT22;13866;50.748;12.630;2023-08-06T07:54:40;15.60;99.90
26107;DHT22;13866;50.748;12.630;2023-08-06T07:57:06;15.70;99.90
26107;DHT22;13866;50.748;12.630;2023-08-06T07:59:31;15.80;99.90
26107;DHT22;13866;50.748;12.630;2023-08-06T08:01:57;15.80;99.90
26107;DHT22;13866;50.748;12.630;2023-08-06T08:04:24;15.70;99.90
26107;DHT22;13866;50.748;12.630;2023-08-06T08:06:49;15.90;99.90
26107;DHT22;13866;50.748;12.630;2023-08-06T08:09:15;16.00;99.90
26107;DHT22;13866;50.748;12.630;2023-08-06T08:11:41;16.00;99.90
26107;DHT22;13866;50.748;12.630;2023-08-06T08:14:06;16.10;99.90
26107;DHT22;13866;50.748;12.630;2023-08-06T08:16:32;16.10;99.90
26107;DHT22;13866;50.748;12.630;2023-08-06T08:18:58;16.30;99.90
26107;DHT22;13866;50.748;12.630;2023-08-06T08:21:24;16.30;99.90
26107;DHT22;13866;50.748;12.630;2023-08-06T08:23:50;16.40;99.90
26107;DHT22;13866;50.748;12.630;2023-08-06T08:26:15;16.50;99.90
26107;DHT22;13866;50.748;12.630;2023-08-06T08:28:41;16.50;99.90
26107;DHT22;13866;50.748;12.630;2023-08-06T08:31:10;16.50;99.90
26107;DHT22;13866;50.748;12.630;2023-08-06T08:33:39;16.50;99.90
26107;DHT22;13866;50.748;12.630;2023-08-06T08:36:05;16.50;99.90
26107;DHT22;13866;50.748;12.630;2023-08-06T08:38:30;16.50;99.90
26107;DHT22;13866;50.748;12.630;2023-08-06T08:40:56;16.40;99.90
26107;DHT22;13866;50.748;12.630;2023-08-06T08:43:22;16.40;99.90
26107;DHT22;13866;50.748;12.630;2023-08-06T08:45:50;16.40;99.90
26107;DHT22;13866;50.748;12.630;2023-08-06T08:48:18;16.40;99.90
26107;DHT22;13866;50.748;12.630;2023-08-06T08:50:45;16.20;99.90
26107;DHT22;13866;50.748;12.630;2023-08-06T08:53:14;16.20;99.90
26107;DHT22;13866;50.748;12.630;2023-08-06T08:55:40;16.10;99.90
26107;DHT22;13866;50.748;12.630;2023-08-06T08:58:08;16.10;99.90
26107;DHT22;13866;50.748;12.630;2023-08-06T09:00:34;16.20;99.90
26107;DHT22;13866;50.748;12.630;2023-08-06T09:03:00;16.10;99.90
26107;DHT22;13866;50.748;12.630;2023-08-06T09:05:29;16.10;99.90
26107;DHT22;13866;50.748;12.630;2023-08-06T09:08:04;16.20;99.90
26107;DHT22;13866;50.748;12.630;2023-08-06T09:10:30;16.10;99.90
26107;DHT22;13866;50.748;12.630;2023-08-06T09:12:57;16.10;99.90
26107;DHT22;13866;50.748;12.630;2023-08-06T09:15:26;16.20;99.90
26107;DHT22;13866;50.748;12.630;2023-08-06T09:17:53;16.20;99.90
26107;DHT22;13866;50.748;12.630;2023-08-06T09:20:18;16.20;99.90
26107;DHT22;13866;50.748;12.630;2023-08-06T09:22:44;16.20;99.90
26107;DHT22;13866;50.748;12.630;2023-08-06T09:25:10;16.30;99.90
26107;DHT22;13866;50.748;12.630;2023-08-06T09:27:39;16.40;99.90
26107;DHT22;13866;50.748;12.630;2023-08-06T09:30:06;16.20;99.90
26107;DHT22;13866;50.748;12.630;2023-08-06T09:32:45;16.30;99.90
26107;DHT22;13866;50.748;12.630;2023-08-06T09:35:19;16.30;99.90
26107;DHT22;13866;50.748;12.630;2023-08-06T09:37:45;16.30;99.90
26107;DHT22;13866;50.748;12.630;2023-08-06T09:40:30;16.30;99.90
26107;DHT22;13866;50.748;12.630;2023-08-06T09:42:57;16.20;99.90
26107;DHT22;13866;50.748;12.630;2023-08-06T09:45:23;16.10;99.90
26107;DHT22;13866;50.748;12.630;2023-08-06T09:47:50;16.20;99.90
26107;DHT22;13866;50.748;12.630;2023-08-06T09:50:19;16.20;99.90
26107;DHT22;13866;50.748;12.630;2023-08-06T09:52:47;16.20;99.90
26107;DHT22;13866;50.748;12.630;2023-08-06T09:55:14;16.30;99.90
26107;DHT22;13866;50.748;12.630;2023-08-06T09:57:41;16.30;99.90
26107;DHT22;13866;50.748;12.630;2023-08-06T10:00:10;16.40;99.90
26107;DHT22;13866;50.748;12.630;2023-08-06T10:02:37;16.40;99.90
26107;DHT22;13866;50.748;12.630;2023-08-06T10:05:05;16.50;99.90
26107;DHT22;13866;50.748;12.630;2023-08-06T10:07:31;16.60;99.90
26107;DHT22;13866;50.748;12.630;2023-08-06T10:09:56;16.70;99.90
26107;DHT22;13866;50.748;12.630;2023-08-06T10:12:23;16.70;99.90
26107;DHT22;13866;50.748;12.630;2023-08-06T10:14:53;16.70;99.90
26107;DHT22;13866;50.748;12.630;2023-08-06T10:17:23;16.70;99.90
26107;DHT22;13866;50.748;12.630;2023-08-06T10:19:50;16.70;99.90
26107;DHT22;13866;50.748;12.630;2023-08-06T10:22:17;16.90;99.90
26107;DHT22;13866;50.748;12.630;2023-08-06T10:24:50;17.00;99.90
26107;DHT22;13866;50.748;12.630;2023-08-06T10:27:33;17.00;99.90
26107;DHT22;13866;50.748;12.630;2023-08-06T10:30:22;17.10;99.90
26107;DHT22;13866;50.748;12.630;2023-08-06T10:32:51;17.10;99.90
26107;DHT22;13866;50.748;12.630;2023-08-06T10:35:37;17.20;99.90
26107;DHT22;13866;50.748;12.630;2023-08-06T10:45:52;17.50;99.90
26107;DHT22;13866;50.748;12.630;2023-08-06T10:48:34;17.40;99.90
26107;DHT22;13866;50.748;12.630;2023-08-06T10:51:00;17.50;99.90
26107;DHT22;13866;50.748;12.630;2023-08-06T10:53:26;17.40;99.90
26107;DHT22;13866;50.748;12.630;2023-08-06T10:55:52;17.40;99.90
26107;DHT22;13866;50.748;12.630;2023-08-06T10:58:17;17.50;99.90
26107;DHT22;13866;50.748;12.630;2023-08-06T11:00:43;17.70;99.90
26107;DHT22;13866;50.748;12.630;2023-08-06T11:03:09;17.90;99.90
26107;DHT22;13866;50.748;12.630;2023-08-06T11:05:35;18.20;99.90
26107;DHT22;13866;50.748;12.630;2023-08-06T11:08:01;18.50;99.90
26107;DHT22;13866;50.748;12.630;2023-08-06T11:10:26;18.90;99.90
26107;DHT22;13866;50.748;12.630;2023-08-06T11:12:52;19.10;99.90
26107;DHT22;13866;50.748;12.630;2023-08-06T11:15:19;19.50;99.90
26107;DHT22;13866;50.748;12.630;2023-08-06T11:17:45;19.80;99.90
26107;DHT22;13866;50.748;12.630;2023-08-06T11:20:11;19.80;99.90
26107;DHT22;13866;50.748;12.630;2023-08-06T11:22:38;19.90;99.90
26107;DHT22;13866;50.748;12.630;2023-08-06T11:25:06;20.10;99.90
26107;DHT22;13866;50.748;12.630;2023-08-06T11:27:31;20.00;99.90
26107;DHT22;13866;50.748;12.630;2023-08-06T11:29:57;19.70;99.90
26107;DHT22;13866;50.748;12.630;2023-08-06T11:32:22;19.60;99.90
26107;DHT22;13866;50.748;12.630;2023-08-06T11:34:48;19.40;99.90
26107;DHT22;13866;50.748;12.630;2023-08-06T11:37:14;19.50;99.90
26107;DHT22;13866;50.748;12.630;2023-08-06T11:39:46;19.50;99.90
26107;DHT22;13866;50.748;12.630;2023-08-06T11:42:12;19.50;99.90
26107;DHT22;13866;50.748;12.630;2023-08-06T11:44:37;19.70;99.90
26107;DHT22;13866;50.748;12.630;2023-08-06T11:47:04;19.80;99.90
26107;DHT22;13866;50.748;12.630;2023-08-06T11:49:44;19.90;99.90
26107;DHT22;13866;50.748;12.630;2023-08-06T11:52:11;20.20;99.90
26107;DHT22;13866;50.748;12.630;2023-08-06T11:54:38;20.90;99.90
26107;DHT22;13866;50.748;12.630;2023-08-06T11:57:05;21.20;99.90
26107;DHT22;13866;50.748;12.630;2023-08-06T11:59:31;21.60;99.90
26107;DHT22;13866;50.748;12.630;2023-08-06T12:01:56;21.60;99.30
26107;DHT22;13866;50.748;12.630;2023-08-06T12:04:22;21.50;96.80
26107;DHT22;13866;50.748;12.630;2023-08-06T12:06:47;21.30;98.40
26107;DHT22;13866;50.748;12.630;2023-08-06T12:09:13;21.20;99.70
26107;DHT22;13866;50.748;12.630;2023-08-06T12:11:38;21.10;93.70
26107;DHT22;13866;50.748;12.630;2023-08-06T12:14:04;21.10;96.30
26107;DHT22;13866;50.748;12.630;2023-08-06T12:16:29;21.00;93.00
26107;DHT22;13866;50.748;12.630;2023-08-06T12:18:55;20.90;95.10
26107;DHT22;13866;50.748;12.630;2023-08-06T12:21:20;20.90;95.30
26107;DHT22;13866;50.748;12.630;2023-08-06T12:23:46;20.70;97.70
26107;DHT22;13866;50.748;12.630;2023-08-06T12:26:11;20.70;96.40
26107;DHT22;13866;50.748;12.630;2023-08-06T12:28:37;20.70;95.20
26107;DHT22;13866;50.748;12.630;2023-08-06T12:31:02;21.00;97.10
26107;DHT22;13866;50.748;12.630;2023-08-06T12:33:28;21.20;93.40
26107;DHT22;13866;50.748;12.630;2023-08-06T12:35:53;21.10;94.90
26107;DHT22;13866;50.748;12.630;2023-08-06T12:38:20;20.90;93.70
26107;DHT22;13866;50.748;12.630;2023-08-06T12:40:45;20.90;95.20
26107;DHT22;13866;50.748;12.630;2023-08-06T12:43:11;20.90;97.80
26107;DHT22;13866;50.748;12.630;2023-08-06T12:45:37;20.60;94.00
26107;DHT22;13866;50.748;12.630;2023-08-06T12:48:03;20.50;95.90
26107;DHT22;13866;50.748;12.630;2023-08-06T12:50:29;20.50;96.60
26107;DHT22;13866;50.748;12.630;2023-08-06T12:52:54;20.50;97.90
26107;DHT22;13866;50.748;12.630;2023-08-06T12:55:20;20.60;99.40
26107;DHT22;13866;50.748;12.630;2023-08-06T12:57:45;20.60;95.70
26107;DHT22;13866;50.748;12.630;2023-08-06T13:00:11;20.70;96.50
26107;DHT22;13866;50.748;12.630;2023-08-06T13:02:37;20.80;93.50
26107;DHT22;13866;50.748;12.630;2023-08-06T13:05:03;20.60;94.50
26107;DHT22;13866;50.748;12.630;2023-08-06T13:07:31;20.70;95.00
26107;DHT22;13866;50.748;12.630;2023-08-06T13:09:56;20.90;94.30
26107;DHT22;13866;50.748;12.630;2023-08-06T13:12:22;21.10;93.60
26107;DHT22;13866;50.748;12.630;2023-08-06T13:14:48;21.20;90.60
26107;DHT22;13866;50.748;12.630;2023-08-06T13:17:14;21.50;91.70
26107;DHT22;13866;50.748;12.630;2023-08-06T13:19:39;21.50;89.40
26107;DHT22;13866;50.748;12.630;2023-08-06T13:22:06;22.10;87.90
26107;DHT22;13866;50.748;12.630;2023-08-06T13:24:34;22.50;84.00
26107;DHT22;13866;50.748;12.630;2023-08-06T13:27:00;22.10;71.50
26107;DHT22;13866;50.748;12.630;2023-08-06T13:29:26;21.70;76.40
26107;DHT22;13866;50.748;12.630;2023-08-06T13:31:52;21.60;77.60
26107;DHT22;13866;50.748;12.630;2023-08-06T13:34:18;21.50;79.30
26107;DHT22;13866;50.748;12.630;2023-08-06T13:36:43;21.30;82.20
26107;DHT22;13866;50.748;12.630;2023-08-06T13:39:09;21.00;79.40
26107;DHT22;13866;50.748;12.630;2023-08-06T13:41:35;20.70;75.70
26107;DHT22;13866;50.748;12.630;2023-08-06T13:44:00;20.50;76.70
26107;DHT22;13866;50.748;12.630;2023-08-06T13:46:26;20.30;77.70
26107;DHT22;13866;50.748;12.630;2023-08-06T13:48:51;20.20;79.10
26107;DHT22;13866;50.748;12.630;2023-08-06T13:51:17;20.20;76.60
26107;DHT22;13866;50.748;12.630;2023-08-06T13:53:43;20.10;78.40
26107;DHT22;13866;50.748;12.630;2023-08-06T13:56:10;20.10;79.30
26107;DHT22;13866;50.748;12.630;2023-08-06T13:58:36;20.10;78.50
26107;DHT22;13866;50.748;12.630;2023-08-06T14:01:02;20.10;75.20
26107;DHT22;13866;50.748;12.630;2023-08-06T14:03:28;20.00;74.90
26107;DHT22;13866;50.748;12.630;2023-08-06T14:05:54;19.80;73.30
26107;DHT22;13866;50.748;12.630;2023-08-06T14:08:23;19.60;70.60
26107;DHT22;13866;50.748;12.630;2023-08-06T14:10:49;19.60;73.20
26107;DHT22;13866;50.748;12.630;2023-08-06T14:13:15;19.60;69.30
26107;DHT22;13866;50.748;12.630;2023-08-06T14:15:40;19.60;67.40
26107;DHT22;13866;50.748;12.630;2023-08-06T14:18:07;19.60;73.30
26107;DHT22;13866;50.748;12.630;2023-08-06T14:20:35;19.50;74.80
26107;DHT22;13866;50.748;12.630;2023-08-06T14:23:01;19.70;79.60
26107;DHT22;13866;50.748;12.630;2023-08-06T14:25:26;19.60;75.00
26107;DHT22;13866;50.748;12.630;2023-08-06T14:27:52;19.80;71.70
26107;DHT22;13866;50.748;12.630;2023-08-06T14:30:17;19.70;73.40
26107;DHT22;13866;50.748;12.630;2023-08-06T14:32:43;19.70;74.30
26107;DHT22;13866;50.748;12.630;2023-08-06T14:35:09;19.70;72.70
26107;DHT22;13866;50.748;12.630;2023-08-06T14:37:34;19.50;80.60
26107;DHT22;13866;50.748;12.630;2023-08-06T14:40:00;19.40;92.60
26107;DHT22;13866;50.748;12.630;2023-08-06T14:42:26;19.30;99.30
26107;DHT22;13866;50.748;12.630;2023-08-06T14:44:51;19.20;99.90
26107;DHT22;13866;50.748;12.630;2023-08-06T14:47:17;19.00;99.90
26107;DHT22;13866;50.748;12.630;2023-08-06T14:49:42;18.90;99.90
26107;DHT22;13866;50.748;12.630;2023-08-06T14:52:08;18.90;99.90
26107;DHT22;13866;50.748;12.630;2023-08-06T14:54:33;18.90;99.90
26107;DHT22;13866;50.748;12.630;2023-08-06T14:56:59;18.90;99.90
26107;DHT22;13866;50.748;12.630;2023-08-06T14:59:24;18.70;99.90
26107;DHT22;13866;50.748;12.630;2023-08-06T15:01:50;18.60;99.90
26107;DHT22;13866;50.748;12.630;2023-08-06T15:04:16;18.60;99.90
26107;DHT22;13866;50.748;12.630;2023-08-06T15:06:42;18.60;99.90
26107;DHT22;13866;50.748;12.630;2023-08-06T15:09:07;18.50;99.90
26107;DHT22;13866;50.748;12.630;2023-08-06T15:11:33;18.50;99.90
26107;DHT22;13866;50.748;12.630;2023-08-06T15:13:58;18.70;99.90
26107;DHT22;13866;50.748;12.630;2023-08-06T15:16:26;18.50;99.90
26107;DHT22;13866;50.748;12.630;2023-08-06T15:18:52;18.60;99.90
26107;DHT22;13866;50.748;12.630;2023-08-06T15:21:17;18.50;99.90
26107;DHT22;13866;50.748;12.630;2023-08-06T15:23:43;18.50;99.90
26107;DHT22;13866;50.748;12.630;2023-08-06T15:26:08;18.40;99.90
26107;DHT22;13866;50.748;12.630;2023-08-06T15:28:34;18.30;99.90